createdAt,value
2017-12-15T00:02:28.138Z,3.30
2017-12-15T00:04:57.851Z,3.30
2017-12-15T00:07:27.642Z,3.30
2017-12-15T00:09:57.380Z,3.30
2017-12-15T00:12:26.867Z,3.30
2017-12-15T00:14:56.581Z,3.30
2017-12-15T00:17:25.985Z,3.30
2017-12-15T00:19:55.734Z,3.30
2017-12-15T00:22:25.484Z,3.30
2017-12-15T00:24:54.983Z,3.20
2017-12-15T00:27:25.539Z,3.10
2017-12-15T00:29:55.184Z,3.10
2017-12-15T00:32:24.930Z,3.10
2017-12-15T00:34:54.638Z,3.00
2017-12-15T00:37:24.508Z,3.00
2017-12-15T00:39:54.294Z,3.00
2017-12-15T00:42:23.995Z,3.00
2017-12-15T00:44:53.757Z,3.00
2017-12-15T00:47:23.511Z,3.00
2017-12-15T00:49:52.988Z,3.00
2017-12-15T00:52:22.070Z,3.00
2017-12-15T00:54:51.826Z,3.00
2017-12-15T00:57:22.466Z,3.00
2017-12-15T00:59:52.178Z,3.00
2017-12-15T01:02:22.710Z,2.90
2017-12-15T01:04:52.740Z,2.90
2017-12-15T01:07:22.176Z,2.90
2017-12-15T01:09:51.583Z,2.90
2017-12-15T01:12:22.941Z,2.80
2017-12-15T01:14:53.592Z,2.70
2017-12-15T01:17:23.342Z,2.70
2017-12-15T01:19:53.121Z,2.70
2017-12-15T01:22:22.869Z,2.70
2017-12-15T01:24:52.660Z,2.60
2017-12-15T01:27:22.940Z,2.50
2017-12-15T01:29:52.689Z,2.50
2017-12-15T01:32:22.871Z,2.40
2017-12-15T01:34:52.628Z,2.40
2017-12-15T01:37:23.140Z,2.30
2017-12-15T01:39:52.928Z,2.30
2017-12-15T01:42:21.724Z,2.30
2017-12-15T01:44:54.533Z,2.30
2017-12-15T01:47:24.998Z,2.30
2017-12-15T01:49:54.751Z,2.20
2017-12-15T01:52:24.524Z,2.20
2017-12-15T01:54:54.266Z,2.20
2017-12-15T01:57:23.879Z,2.10
2017-12-15T01:59:53.583Z,2.10
2017-12-15T02:02:23.324Z,2.10
2017-12-15T02:04:53.065Z,2.10
2017-12-15T02:07:22.831Z,2.10
2017-12-15T02:09:52.553Z,2.10
2017-12-15T02:12:23.138Z,2.00
2017-12-15T02:14:52.914Z,2.00
2017-12-15T02:17:23.521Z,1.90
2017-12-15T02:19:52.914Z,1.90
2017-12-15T02:22:22.819Z,1.90
2017-12-15T02:24:52.250Z,1.90
2017-12-15T02:27:22.838Z,1.90
2017-12-15T02:29:52.557Z,1.80
2017-12-15T02:32:22.353Z,1.90
2017-12-15T02:34:52.103Z,1.90
2017-12-15T02:37:21.877Z,1.90
2017-12-15T02:39:51.611Z,1.80
2017-12-15T02:42:21.430Z,1.80
2017-12-15T02:44:51.172Z,1.80
2017-12-15T02:47:21.739Z,1.80
2017-12-15T02:49:51.470Z,1.80
2017-12-15T02:52:21.330Z,1.80
2017-12-15T02:54:51.056Z,1.80
2017-12-15T02:57:20.910Z,1.80
2017-12-15T02:59:51.587Z,1.80
2017-12-15T03:02:22.076Z,1.80
2017-12-15T03:04:51.898Z,1.80
2017-12-15T03:07:30.178Z,1.80
2017-12-15T03:10:03.825Z,1.80
2017-12-15T03:12:35.119Z,1.80
2017-12-15T03:15:04.918Z,1.70
2017-12-15T03:17:34.746Z,1.70
2017-12-15T03:20:04.487Z,1.70
2017-12-15T03:22:34.266Z,1.70
2017-12-15T03:25:07.477Z,1.70
2017-12-15T03:27:37.268Z,1.70
2017-12-15T03:30:07.067Z,1.70
2017-12-15T03:32:37.989Z,1.70
2017-12-15T03:35:09.639Z,1.70
2017-12-15T03:37:39.352Z,1.80
2017-12-15T03:40:09.124Z,1.90
2017-12-15T03:42:38.882Z,1.90
2017-12-15T03:45:09.923Z,1.90
2017-12-15T03:47:40.466Z,1.90
2017-12-15T03:50:13.182Z,1.90
2017-12-15T03:52:43.220Z,1.90
2017-12-15T03:55:13.843Z,2.00
2017-12-15T03:57:43.597Z,2.00
2017-12-15T04:00:14.093Z,1.90
2017-12-15T04:02:43.904Z,1.90
2017-12-15T04:50:06.909Z,1.80
2017-12-15T04:52:37.962Z,1.90
2017-12-15T04:55:07.382Z,1.80
2017-12-15T04:57:36.864Z,1.90
2017-12-15T05:00:06.456Z,1.90
2017-12-15T05:02:35.585Z,2.00
2017-12-15T05:05:05.661Z,2.00
2017-12-15T05:07:34.784Z,2.00
2017-12-15T05:10:12.250Z,2.10
2017-12-15T05:12:43.091Z,2.20
2017-12-15T05:15:13.248Z,2.40
2017-12-15T05:17:43.022Z,2.30
2017-12-15T05:20:13.661Z,2.60
2017-12-15T05:22:43.117Z,2.60
2017-12-15T05:25:13.182Z,2.70
2017-12-15T05:27:44.338Z,2.60
2017-12-15T05:30:16.102Z,2.60
2017-12-15T05:32:46.613Z,2.60
2017-12-15T05:35:18.443Z,2.50
2017-12-15T05:37:47.960Z,2.50
2017-12-15T05:40:17.909Z,2.60
2017-12-15T05:42:50.748Z,2.50
2017-12-15T05:45:20.754Z,2.50
2017-12-15T05:47:52.042Z,2.60
2017-12-15T05:50:22.631Z,2.60
2017-12-15T05:52:53.332Z,2.60
2017-12-15T05:55:23.858Z,2.60
2017-12-15T06:00:52.085Z,2.50
2017-12-15T06:03:21.936Z,2.50
2017-12-15T06:05:52.511Z,2.50
2017-12-15T06:08:22.295Z,2.50
2017-12-15T06:10:52.906Z,2.50
2017-12-15T06:13:23.223Z,2.50
2017-12-15T06:15:53.186Z,2.50
2017-12-15T06:18:22.658Z,2.50
2017-12-15T06:38:40.291Z,2.30
2017-12-15T06:41:10.534Z,2.40
2017-12-15T06:43:41.067Z,2.40
2017-12-15T06:46:10.805Z,2.40
2017-12-15T06:48:40.633Z,2.40
2017-12-15T06:51:10.388Z,2.50
2017-12-15T06:53:40.175Z,2.50
2017-12-15T06:56:10.033Z,2.50
2017-12-15T06:58:40.818Z,2.50
2017-12-15T07:01:10.586Z,2.50
2017-12-15T07:03:40.298Z,2.50
2017-12-15T07:06:10.058Z,2.50
2017-12-15T07:08:39.795Z,2.50
2017-12-15T07:11:09.667Z,2.50
2017-12-15T07:13:40.217Z,2.50
2017-12-15T07:16:10.087Z,2.50
2017-12-15T07:18:40.389Z,2.50
2017-12-15T07:21:10.100Z,2.50
2017-12-15T07:23:39.950Z,2.50
2017-12-15T07:26:10.462Z,2.50
2017-12-15T07:28:40.997Z,2.60
2017-12-15T07:31:11.533Z,2.60
2017-12-15T07:33:41.258Z,2.60
2017-12-15T07:36:11.782Z,2.60
2017-12-15T07:38:42.260Z,2.60
2017-12-15T07:41:11.690Z,2.60
2017-12-15T07:43:41.114Z,2.60
2017-12-15T07:46:11.275Z,2.70
2017-12-15T07:48:40.734Z,2.70
2017-12-15T07:51:10.994Z,2.80
2017-12-15T07:53:41.670Z,2.70
2017-12-15T07:56:11.426Z,2.70
2017-12-15T07:58:41.162Z,2.70
2017-12-15T08:01:10.941Z,2.70
2017-12-15T08:03:41.097Z,2.80
2017-12-15T08:06:10.243Z,2.80
2017-12-15T08:08:39.991Z,2.90
2017-12-15T08:11:09.409Z,2.80
2017-12-15T08:13:39.223Z,2.90
2017-12-15T08:16:08.960Z,2.80
2017-12-15T08:18:39.347Z,2.80
2017-12-15T08:21:09.060Z,2.80
2017-12-15T08:23:38.836Z,2.80
2017-12-15T08:26:08.275Z,2.90
2017-12-15T08:28:38.034Z,3.00
2017-12-15T08:31:07.817Z,3.00
2017-12-15T08:33:37.548Z,3.10
2017-12-15T08:36:07.307Z,3.10
2017-12-15T08:38:37.068Z,3.10
2017-12-15T08:41:06.781Z,3.00
2017-12-15T08:43:36.186Z,3.00
2017-12-15T08:46:05.994Z,3.10
2017-12-15T08:48:35.104Z,3.20
2017-12-15T08:51:03.883Z,3.10
2017-12-15T08:53:33.602Z,3.10
2017-12-15T08:56:03.001Z,3.10
2017-12-15T08:58:32.730Z,3.10
2017-12-15T09:01:03.266Z,2.90
2017-12-15T09:03:33.746Z,3.00
2017-12-15T09:06:03.570Z,3.00
2017-12-15T09:08:33.271Z,3.00
2017-12-15T09:11:03.318Z,3.00
2017-12-15T09:13:33.060Z,2.90
2017-12-15T09:16:02.890Z,3.00
2017-12-15T09:18:32.291Z,2.90
2017-12-15T09:21:02.014Z,2.90
2017-12-15T09:23:31.737Z,3.00
2017-12-15T09:26:01.516Z,3.10
2017-12-15T09:28:31.989Z,3.00
2017-12-15T09:31:01.778Z,3.00
2017-12-15T09:33:31.559Z,3.10
2017-12-15T09:36:01.326Z,3.10
2017-12-15T09:38:31.090Z,3.10
2017-12-15T09:41:00.436Z,3.10
2017-12-15T09:43:30.187Z,3.20
2017-12-15T09:46:00.686Z,3.30
2017-12-15T09:48:30.450Z,3.20
2017-12-15T09:51:00.222Z,3.20
2017-12-15T09:53:29.942Z,3.20
2017-12-15T09:55:59.702Z,3.10
2017-12-15T09:58:29.465Z,3.10
2017-12-15T10:00:59.290Z,3.10
2017-12-15T10:03:29.046Z,3.10
2017-12-15T10:05:59.627Z,3.10
2017-12-15T10:08:30.114Z,3.00
2017-12-15T10:11:00.319Z,3.10
2017-12-15T10:13:30.087Z,3.20
2017-12-15T10:15:59.822Z,3.10
2017-12-15T10:18:30.052Z,3.10
2017-12-15T10:20:59.808Z,3.10
2017-12-15T10:23:29.527Z,3.10
2017-12-15T10:25:59.278Z,3.00
2017-12-15T10:28:29.021Z,3.00
2017-12-15T10:30:58.793Z,3.00
2017-12-15T10:33:28.517Z,3.00
2017-12-15T10:35:58.287Z,3.00
2017-12-15T10:38:28.017Z,3.00
2017-12-15T10:40:57.786Z,3.00
2017-12-15T10:43:27.517Z,3.00
2017-12-15T10:45:57.286Z,3.00
2017-12-15T10:48:27.029Z,3.10
2017-12-15T10:50:56.800Z,3.20
2017-12-15T10:53:26.564Z,3.20
2017-12-15T10:55:56.279Z,3.20
2017-12-15T10:58:26.807Z,3.10
2017-12-15T11:00:57.339Z,3.20
2017-12-15T11:03:27.366Z,3.20
2017-12-15T11:05:57.859Z,3.30
2017-12-15T11:08:27.730Z,3.30
2017-12-15T11:10:57.441Z,3.30
2017-12-15T11:13:27.203Z,3.30
2017-12-15T11:15:56.941Z,3.30
2017-12-15T11:18:27.476Z,3.30
2017-12-15T11:20:57.214Z,3.30
2017-12-15T11:23:26.996Z,3.30
2017-12-15T11:25:57.490Z,3.40
2017-12-15T11:28:28.802Z,3.40
2017-12-15T11:30:58.551Z,3.40
2017-12-15T11:33:28.328Z,3.40
2017-12-15T11:35:58.108Z,3.40
2017-12-15T11:38:28.613Z,3.30
2017-12-15T11:40:58.418Z,3.30
2017-12-15T11:43:28.187Z,3.30
2017-12-15T11:45:57.961Z,3.40
2017-12-15T11:48:28.493Z,3.30
2017-12-15T11:50:58.679Z,3.30
2017-12-15T11:53:28.459Z,3.30
2017-12-15T11:55:57.898Z,3.30
2017-12-15T11:58:27.765Z,3.30
2017-12-15T12:00:57.552Z,3.30
2017-12-15T12:03:27.321Z,3.30
2017-12-15T12:05:57.103Z,3.20
2017-12-15T12:08:26.879Z,3.20
2017-12-15T12:10:56.012Z,3.10
2017-12-15T12:13:25.479Z,3.20
2017-12-15T12:15:54.926Z,3.10
2017-12-15T12:18:24.386Z,3.00
2017-12-15T12:20:53.525Z,2.90
2017-12-15T12:23:23.697Z,2.70
2017-12-15T12:25:53.438Z,2.70
2017-12-15T12:28:23.953Z,2.70
2017-12-15T12:30:53.683Z,2.70
2017-12-15T12:33:23.886Z,2.70
2017-12-15T12:35:53.691Z,2.60
2017-12-15T12:38:24.950Z,2.50
2017-12-15T12:40:54.695Z,2.60
2017-12-15T12:43:24.463Z,2.60
2017-12-15T12:45:54.181Z,2.60
2017-12-15T12:48:24.069Z,2.60
2017-12-15T12:50:53.902Z,2.50
2017-12-15T12:53:23.656Z,2.50
2017-12-15T12:55:54.074Z,2.50
2017-12-15T12:58:24.582Z,2.50
2017-12-15T13:00:54.324Z,2.40
2017-12-15T13:03:24.104Z,2.40
2017-12-15T13:05:53.201Z,2.50
2017-12-15T13:08:22.348Z,2.40
2017-12-15T13:10:53.034Z,2.50
2017-12-15T13:13:23.551Z,2.50
2017-12-15T13:15:52.934Z,2.50
2017-12-15T13:18:22.678Z,2.40
2017-12-15T13:20:52.407Z,2.40
2017-12-15T13:23:22.718Z,2.60
2017-12-15T13:25:53.199Z,2.60
2017-12-15T13:28:22.618Z,2.60
2017-12-15T13:30:52.339Z,2.40
2017-12-15T13:33:23.606Z,2.40
2017-12-15T13:35:54.098Z,2.50
2017-12-15T13:38:23.538Z,2.50
2017-12-15T13:40:53.729Z,2.60
2017-12-15T13:43:23.122Z,2.60
2017-12-15T13:45:52.902Z,2.50
2017-12-15T13:48:22.808Z,2.50
2017-12-15T13:50:52.206Z,2.50
2017-12-15T13:53:22.762Z,2.60
2017-12-15T13:55:52.531Z,2.60
2017-12-15T13:58:23.031Z,2.60
2017-12-15T14:00:52.786Z,2.60
2017-12-15T14:03:22.500Z,2.60
2017-12-15T14:05:52.261Z,2.60
2017-12-15T14:08:22.005Z,2.70
2017-12-15T14:10:51.772Z,2.70
2017-12-15T14:13:21.493Z,2.80
2017-12-15T14:15:51.241Z,2.80
2017-12-15T14:18:21.742Z,2.80
2017-12-15T14:20:51.518Z,2.80
2017-12-15T14:23:21.268Z,2.80
2017-12-15T14:25:51.023Z,2.80
2017-12-15T14:28:20.822Z,2.80
2017-12-15T14:30:50.561Z,2.90
2017-12-15T14:33:20.317Z,2.90
2017-12-15T14:35:49.702Z,2.90
2017-12-15T14:38:19.462Z,3.00
2017-12-15T14:40:49.987Z,3.10
2017-12-15T14:43:20.150Z,3.10
2017-12-15T14:45:49.589Z,3.10
2017-12-15T14:48:19.322Z,3.10
2017-12-15T14:50:49.115Z,3.00
2017-12-15T14:53:19.232Z,3.00
2017-12-15T14:55:48.945Z,3.10
2017-12-15T14:58:18.722Z,3.10
2017-12-15T15:00:53.806Z,3.10
2017-12-15T15:03:23.594Z,3.10
2017-12-15T15:05:53.362Z,3.20
2017-12-15T15:08:23.139Z,3.20
2017-12-15T15:10:52.857Z,3.20
2017-12-15T15:13:23.633Z,3.30
2017-12-15T15:15:53.354Z,3.30
2017-12-15T15:18:23.102Z,3.40
2017-12-15T15:20:52.583Z,3.30
2017-12-15T15:23:22.511Z,3.30
2017-12-15T15:25:52.257Z,3.40
2017-12-15T15:28:22.251Z,3.40
2017-12-15T15:30:53.081Z,3.50
2017-12-15T15:33:22.845Z,3.50
2017-12-15T15:35:52.599Z,3.50
2017-12-15T15:38:22.067Z,3.50
2017-12-15T15:40:51.121Z,3.50
2017-12-15T15:43:21.464Z,3.50
2017-12-15T15:45:50.260Z,3.50
2017-12-15T15:48:19.358Z,3.50
2017-12-15T15:50:48.439Z,3.60
2017-12-15T15:53:17.265Z,3.60
2017-12-15T15:55:46.133Z,3.60
2017-12-15T15:58:15.192Z,3.60
2017-12-15T16:00:44.832Z,3.50
2017-12-15T16:03:14.250Z,3.50
2017-12-15T16:05:43.102Z,3.50
2017-12-15T16:08:12.945Z,3.60
2017-12-15T16:10:42.456Z,3.50
2017-12-15T16:13:12.193Z,3.60
2017-12-15T16:15:42.056Z,3.60
2017-12-15T16:18:12.568Z,3.60
2017-12-15T16:20:43.918Z,3.60
2017-12-15T16:23:13.682Z,3.60
2017-12-15T16:25:43.438Z,3.70
2017-12-15T16:28:12.947Z,3.60
2017-12-15T16:30:42.682Z,3.60
2017-12-15T16:33:11.786Z,3.60
2017-12-15T16:35:40.850Z,3.60
2017-12-15T16:38:10.747Z,3.70
2017-12-15T16:40:40.546Z,3.60
2017-12-15T16:43:10.442Z,3.60
2017-12-15T16:45:39.928Z,3.60
2017-12-15T16:48:09.868Z,3.60
2017-12-15T16:50:39.886Z,3.70
2017-12-15T16:53:09.319Z,3.60
2017-12-15T16:55:38.638Z,3.70
2017-12-15T16:58:07.736Z,3.70
2017-12-15T17:00:36.550Z,3.70
2017-12-15T17:03:05.693Z,3.70
2017-12-15T17:05:34.761Z,3.70
2017-12-15T17:08:03.944Z,3.70
2017-12-15T17:10:32.828Z,3.80
2017-12-15T17:13:02.655Z,3.70
2017-12-15T17:15:32.092Z,3.70
2017-12-15T17:18:01.256Z,3.70
2017-12-15T17:20:30.679Z,3.80
2017-12-15T17:22:59.757Z,3.80
2017-12-15T17:25:28.835Z,3.80
2017-12-15T17:27:57.996Z,3.80
2017-12-15T17:30:27.554Z,3.70
2017-12-15T17:32:56.627Z,3.70
2017-12-15T17:35:26.134Z,3.80
2017-12-15T17:37:56.334Z,3.70
2017-12-15T17:40:26.138Z,3.70
2017-12-15T17:42:55.897Z,3.70
2017-12-15T17:45:26.399Z,3.80
2017-12-15T17:47:56.225Z,3.80
2017-12-15T17:50:26.726Z,3.80
2017-12-15T17:52:56.484Z,3.80
2017-12-15T17:55:25.879Z,3.80
2017-12-15T17:57:55.652Z,3.80
2017-12-15T18:00:24.745Z,3.70
2017-12-15T18:02:54.202Z,3.60
2017-12-15T18:05:23.976Z,3.60
2017-12-15T18:07:53.698Z,3.60
2017-12-15T18:10:24.235Z,3.70
2017-12-15T18:12:54.021Z,3.70
2017-12-15T18:15:23.787Z,3.70
2017-12-15T18:17:53.511Z,3.70
2017-12-15T18:20:23.276Z,3.70
2017-12-15T18:22:53.814Z,3.60
2017-12-15T18:25:23.593Z,3.60
2017-12-15T18:27:53.350Z,3.60
2017-12-15T18:30:23.116Z,3.60
2017-12-15T18:32:52.979Z,3.60
2017-12-15T18:35:22.378Z,3.50
2017-12-15T18:37:52.145Z,3.60
2017-12-15T18:40:21.876Z,3.60
2017-12-15T18:42:52.391Z,3.70
2017-12-15T18:45:23.625Z,3.60
2017-12-15T18:47:53.077Z,3.60
2017-12-15T18:50:22.794Z,3.60
2017-12-15T18:52:52.575Z,3.60
2017-12-15T18:55:23.075Z,3.60
2017-12-15T18:57:52.534Z,3.60
2017-12-15T19:00:21.635Z,3.60
2017-12-15T19:02:50.448Z,3.60
2017-12-15T19:05:19.283Z,3.70
2017-12-15T19:07:49.228Z,3.70
2017-12-15T19:10:18.836Z,3.60
2017-12-15T19:12:47.638Z,3.60
2017-12-15T19:15:17.022Z,3.70
2017-12-15T19:17:45.825Z,3.70
2017-12-15T19:20:14.894Z,3.70
2017-12-15T19:22:45.086Z,3.70
2017-12-15T19:25:14.638Z,3.70
2017-12-15T19:27:43.710Z,3.60
2017-12-15T19:30:13.631Z,3.70
2017-12-15T19:32:43.275Z,3.70
2017-12-15T19:35:12.732Z,3.70
2017-12-15T19:37:42.899Z,3.70
2017-12-15T19:40:12.401Z,3.70
2017-12-15T19:42:41.562Z,3.70
2017-12-15T19:45:11.288Z,3.80
2017-12-15T19:47:41.811Z,3.80
2017-12-15T19:50:12.533Z,3.80
2017-12-15T19:52:43.053Z,3.80
2017-12-15T19:55:12.787Z,3.70
2017-12-15T19:57:43.092Z,3.70
2017-12-15T20:00:12.438Z,3.70
2017-12-15T20:02:42.033Z,3.70
2017-12-15T20:05:12.232Z,3.70
2017-12-15T20:07:41.357Z,3.70
2017-12-15T20:10:10.762Z,3.70
2017-12-15T20:12:40.215Z,3.70
2017-12-15T20:15:09.662Z,3.70
2017-12-15T20:17:38.797Z,3.70
2017-12-15T20:20:07.793Z,3.70
2017-12-15T20:22:36.886Z,3.70
2017-12-15T20:25:06.470Z,3.70
2017-12-15T20:27:35.943Z,3.70
2017-12-15T20:30:05.851Z,3.70
2017-12-15T20:32:35.023Z,3.70
2017-12-15T20:35:04.172Z,3.80
2017-12-15T20:37:33.898Z,3.80
2017-12-15T20:40:03.702Z,3.90
2017-12-15T20:42:32.821Z,3.80
2017-12-15T20:45:01.950Z,3.70
2017-12-15T20:47:31.400Z,3.80
2017-12-15T20:50:00.488Z,3.80
2017-12-15T20:52:30.672Z,3.90
2017-12-15T20:54:59.786Z,3.80
2017-12-15T20:57:30.306Z,3.80
2017-12-15T20:59:59.825Z,3.70
2017-12-15T21:02:30.079Z,3.70
2017-12-15T21:04:59.186Z,3.70
2017-12-15T21:07:28.969Z,3.70
2017-12-15T21:09:58.068Z,3.70
2017-12-15T21:12:27.998Z,3.70
2017-12-15T21:14:57.802Z,3.70
2017-12-15T21:17:27.570Z,3.70
2017-12-15T21:19:57.326Z,3.70
2017-12-15T21:22:27.065Z,3.70
2017-12-15T21:24:56.876Z,3.70
2017-12-15T21:27:27.614Z,3.70
2017-12-15T21:29:57.387Z,3.70
2017-12-15T21:32:27.899Z,3.70
2017-12-15T21:34:57.691Z,3.70
2017-12-15T21:37:27.443Z,3.70
2017-12-15T21:39:57.996Z,3.70
2017-12-15T21:42:27.815Z,3.70
2017-12-15T21:44:57.591Z,3.70
2017-12-15T21:47:29.075Z,3.70
2017-12-15T21:49:58.863Z,3.70
2017-12-15T21:52:29.373Z,3.70
2017-12-15T21:54:59.138Z,3.70
2017-12-15T21:57:28.937Z,3.60
2017-12-15T21:59:58.680Z,3.70
2017-12-15T22:02:28.459Z,3.60
2017-12-15T22:04:57.910Z,3.60
2017-12-15T22:07:27.715Z,3.60
2017-12-15T22:09:57.455Z,3.60
2017-12-15T22:12:28.028Z,3.60
2017-12-15T22:14:57.889Z,3.60
2017-12-15T22:17:27.331Z,3.70
2017-12-15T22:19:57.085Z,3.60
2017-12-15T22:22:26.863Z,3.70
2017-12-15T22:24:56.585Z,3.70
2017-12-15T22:27:26.046Z,3.60
2017-12-15T22:29:56.551Z,3.60
2017-12-15T22:32:25.985Z,3.60
2017-12-15T22:34:55.447Z,3.60
2017-12-15T22:37:25.246Z,3.60
2017-12-15T22:39:55.035Z,3.60
2017-12-15T22:42:24.834Z,3.60
2017-12-15T22:44:54.573Z,3.60
2017-12-15T22:47:24.313Z,3.60
2017-12-15T22:49:54.119Z,3.60
2017-12-15T22:52:23.862Z,3.60
2017-12-15T22:54:54.426Z,3.60
2017-12-15T22:57:24.227Z,3.60
2017-12-15T22:59:53.971Z,3.70
2017-12-15T23:02:23.714Z,3.60
2017-12-15T23:04:53.494Z,3.60
2017-12-15T23:07:23.228Z,3.60
2017-12-15T23:09:52.992Z,3.60
2017-12-15T23:12:22.729Z,3.50
2017-12-15T23:14:52.551Z,3.50
2017-12-15T23:17:22.800Z,3.50
2017-12-15T23:19:52.525Z,3.60
2017-12-15T23:22:23.077Z,3.60
2017-12-15T23:24:52.807Z,3.60
2017-12-15T23:27:22.592Z,3.60
2017-12-15T23:29:52.376Z,3.50
2017-12-15T23:32:21.822Z,3.60
2017-12-15T23:34:51.575Z,3.60
2017-12-15T23:37:21.341Z,3.60
2017-12-15T23:39:51.086Z,3.50
2017-12-15T23:42:20.839Z,3.50
2017-12-15T23:44:51.397Z,3.50
2017-12-15T23:47:20.527Z,3.50
2017-12-15T23:49:49.606Z,3.40
2017-12-15T23:52:19.002Z,3.50
2017-12-15T23:54:59.957Z,3.50
2017-12-15T23:57:29.058Z,3.50
2017-12-15T23:59:58.534Z,3.40
